sensor_id;sensor_type;location;lat;lon;timestamp;pressure;altitude;pressure_sealevel;temperature;humidity
8573;BME280;4324;42.012;24.872;2023-01-30T00:00:54;99260.22;;;3.94;100.00
8573;BME280;4324;42.012;24.872;2023-01-30T00:03:22;99298.34;;;4.09;100.00
8573;BME280;4324;42.012;24.872;2023-01-30T00:05:49;99275.94;;;3.94;100.00
8573;BME280;4324;42.012;24.872;2023-01-30T00:08:17;99301.34;;;4.04;100.00
8573;BME280;4324;42.012;24.872;2023-01-30T00:10:45;99287.63;;;4.01;100.00
8573;BME280;4324;42.012;24.872;2023-01-30T00:13:13;99282.25;;;3.91;100.00
8573;BME280;4324;42.012;24.872;2023-01-30T00:15:41;99293.31;;;3.95;100.00
8573;BME280;4324;42.012;24.872;2023-01-30T00:18:09;99295.34;;;3.91;100.00
8573;BME280;4324;42.012;24.872;2023-01-30T00:20:36;99294.63;;;3.89;100.00
8573;BME280;4324;42.012;24.872;2023-01-30T00:23:03;99289.63;;;3.86;100.00
8573;BME280;4324;42.012;24.872;2023-01-30T00:25:30;99282.09;;;3.81;100.00
8573;BME280;4324;42.012;24.872;2023-01-30T00:27:59;99283.19;;;3.79;100.00
8573;BME280;4324;42.012;24.872;2023-01-30T00:30:27;99225.81;;;3.40;100.00
8573;BME280;4324;42.012;24.872;2023-01-30T00:32:54;99295.44;;;3.78;100.00
8573;BME280;4324;42.012;24.872;2023-01-30T00:35:21;99294.72;;;3.76;100.00
8573;BME280;4324;42.012;24.872;2023-01-30T00:37:54;99279.09;;;3.63;100.00
8573;BME280;4324;42.012;24.872;2023-01-30T00:40:21;99293.50;;;3.69;100.00
8573;BME280;4324;42.012;24.872;2023-01-30T00:42:48;99290.19;;;3.67;100.00
8573;BME280;4324;42.012;24.872;2023-01-30T00:45:35;99297.09;;;3.68;100.00
8573;BME280;4324;42.012;24.872;2023-01-30T00:48:21;99279.94;;;3.64;100.00
8573;BME280;4324;42.012;24.872;2023-01-30T00:50:47;99291.63;;;3.71;100.00
8573;BME280;4324;42.012;24.872;2023-01-30T00:53:15;99285.19;;;3.64;100.00
8573;BME280;4324;42.012;24.872;2023-01-30T00:55:42;99291.25;;;3.64;100.00
8573;BME280;4324;42.012;24.872;2023-01-30T00:58:10;99261.81;;;3.50;100.00
8573;BME280;4324;42.012;24.872;2023-01-30T01:00:39;99263.25;;;3.54;100.00
8573;BME280;4324;42.012;24.872;2023-01-30T01:03:06;99283.25;;;3.66;100.00
8573;BME280;4324;42.012;24.872;2023-01-30T01:05:33;99273.00;;;3.63;100.00
8573;BME280;4324;42.012;24.872;2023-01-30T01:08:00;99267.28;;;3.58;100.00
8573;BME280;4324;42.012;24.872;2023-01-30T01:10:27;99191.03;;;3.16;100.00
8573;BME280;4324;42.012;24.872;2023-01-30T01:12:54;99270.38;;;3.63;100.00
8573;BME280;4324;42.012;24.872;2023-01-30T01:15:22;99275.31;;;3.68;100.00
8573;BME280;4324;42.012;24.872;2023-01-30T01:17:52;99249.19;;;3.55;100.00
8573;BME280;4324;42.012;24.872;2023-01-30T01:20:20;99273.00;;;3.63;100.00
8573;BME280;4324;42.012;24.872;2023-01-30T01:22:47;99260.75;;;3.52;100.00
8573;BME280;4324;42.012;24.872;2023-01-30T01:25:18;99258.16;;;3.63;100.00
8573;BME280;4324;42.012;24.872;2023-01-30T01:27:45;99262.53;;;3.63;100.00
8573;BME280;4324;42.012;24.872;2023-01-30T01:30:13;99243.00;;;3.56;100.00
8573;BME280;4324;42.012;24.872;2023-01-30T01:32:40;99256.00;;;3.69;100.00
8573;BME280;4324;42.012;24.872;2023-01-30T01:35:09;99261.50;;;3.77;100.00
8573;BME280;4324;42.012;24.872;2023-01-30T01:37:36;99247.94;;;3.72;100.00
8573;BME280;4324;42.012;24.872;2023-01-30T01:40:04;99248.88;;;3.82;100.00
8573;BME280;4324;42.012;24.872;2023-01-30T01:42:50;99255.91;;;3.93;100.00
8573;BME280;4324;42.012;24.872;2023-01-30T01:45:18;99263.09;;;4.02;100.00
8573;BME280;4324;42.012;24.872;2023-01-30T01:47:52;99226.41;;;3.91;100.00
8573;BME280;4324;42.012;24.872;2023-01-30T01:50:26;99244.97;;;4.10;100.00
8573;BME280;4324;42.012;24.872;2023-01-30T01:52:58;99227.09;;;3.93;100.00
8573;BME280;4324;42.012;24.872;2023-01-30T01:55:27;99261.53;;;4.22;100.00
8573;BME280;4324;42.012;24.872;2023-01-30T01:57:58;99258.09;;;4.21;100.00
8573;BME280;4324;42.012;24.872;2023-01-30T02:00:27;99254.75;;;4.08;100.00
8573;BME280;4324;42.012;24.872;2023-01-30T02:02:56;99249.25;;;4.11;100.00
8573;BME280;4324;42.012;24.872;2023-01-30T02:05:28;99258.09;;;4.21;100.00
8573;BME280;4324;42.012;24.872;2023-01-30T02:07:59;99258.09;;;4.21;100.00
8573;BME280;4324;42.012;24.872;2023-01-30T02:10:35;99248.78;;;4.06;100.00
8573;BME280;4324;42.012;24.872;2023-01-30T02:13:03;99254.41;;;4.12;100.00
8573;BME280;4324;42.012;24.872;2023-01-30T02:15:30;99241.75;;;4.06;100.00
8573;BME280;4324;42.012;24.872;2023-01-30T02:17:57;99246.41;;;4.14;100.00
8573;BME280;4324;42.012;24.872;2023-01-30T02:20:40;99248.56;;;4.09;100.00
8573;BME280;4324;42.012;24.872;2023-01-30T02:23:47;99237.94;;;4.10;100.00
8573;BME280;4324;42.012;24.872;2023-01-30T02:29:49;99226.41;;;4.02;100.00
8573;BME280;4324;42.012;24.872;2023-01-30T02:32:25;99238.91;;;4.09;100.00
8573;BME280;4324;42.012;24.872;2023-01-30T02:35:01;99241.53;;;3.98;100.00
8573;BME280;4324;42.012;24.872;2023-01-30T02:37:49;99244.75;;;4.02;100.00
8573;BME280;4324;42.012;24.872;2023-01-30T02:40:38;99225.91;;;3.85;100.00
8573;BME280;4324;42.012;24.872;2023-01-30T02:43:12;99145.75;;;3.38;100.00
8573;BME280;4324;42.012;24.872;2023-01-30T02:45:47;99234.25;;;3.91;100.00
8573;BME280;4324;42.012;24.872;2023-01-30T02:48:22;99237.84;;;3.90;100.00
8573;BME280;4324;42.012;24.872;2023-01-30T02:50:55;99228.88;;;3.81;100.00
8573;BME280;4324;42.012;24.872;2023-01-30T02:53:23;99222.09;;;3.78;100.00
8573;BME280;4324;42.012;24.872;2023-01-30T02:55:50;99238.28;;;3.83;100.00
8573;BME280;4324;42.012;24.872;2023-01-30T02:58:20;99224.81;;;3.77;100.00
8573;BME280;4324;42.012;24.872;2023-01-30T03:00:56;99219.13;;;3.72;100.00
8573;BME280;4324;42.012;24.872;2023-01-30T03:03:42;99237.09;;;3.87;100.00
8573;BME280;4324;42.012;24.872;2023-01-30T03:06:24;99241.97;;;3.92;100.00
8573;BME280;4324;42.012;24.872;2023-01-30T03:09:06;99230.44;;;3.83;100.00
8573;BME280;4324;42.012;24.872;2023-01-30T03:11:43;99235.91;;;3.80;100.00
8573;BME280;4324;42.012;24.872;2023-01-30T03:14:17;99189.94;;;3.54;100.00
8573;BME280;4324;42.012;24.872;2023-01-30T03:16:46;99205.41;;;3.57;100.00
8573;BME280;4324;42.012;24.872;2023-01-30T03:19:18;99206.84;;;3.61;100.00
8573;BME280;4324;42.012;24.872;2023-01-30T03:21:45;99244.00;;;3.77;100.00
8573;BME280;4324;42.012;24.872;2023-01-30T03:24:12;99227.44;;;3.66;100.00
8573;BME280;4324;42.012;24.872;2023-01-30T03:26:43;99204.81;;;3.53;100.00
8573;BME280;4324;42.012;24.872;2023-01-30T03:29:12;99225.53;;;3.68;100.00
8573;BME280;4324;42.012;24.872;2023-01-30T03:31:39;99206.69;;;3.51;100.00
8573;BME280;4324;42.012;24.872;2023-01-30T03:34:06;99208.97;;;3.56;100.00
8573;BME280;4324;42.012;24.872;2023-01-30T03:36:34;99214.69;;;3.61;100.00
8573;BME280;4324;42.012;24.872;2023-01-30T03:39:01;99219.94;;;3.61;100.00
8573;BME280;4324;42.012;24.872;2023-01-30T03:41:28;99217.31;;;3.61;100.00
8573;BME280;4324;42.012;24.872;2023-01-30T03:43:55;99191.00;;;3.51;100.00
8573;BME280;4324;42.012;24.872;2023-01-30T03:46:22;99202.66;;;3.58;100.00
8573;BME280;4324;42.012;24.872;2023-01-30T03:48:50;99204.69;;;3.55;100.00
8573;BME280;4324;42.012;24.872;2023-01-30T03:51:16;99199.81;;;3.50;100.00
8573;BME280;4324;42.012;24.872;2023-01-30T03:53:45;99210.41;;;3.60;100.00
8573;BME280;4324;42.012;24.872;2023-01-30T03:56:12;99203.03;;;3.54;100.00
8573;BME280;4324;42.012;24.872;2023-01-30T03:58:39;99200.19;;;3.57;100.00
8573;BME280;4324;42.012;24.872;2023-01-30T04:01:06;99201.97;;;3.68;100.00
8573;BME280;4324;42.012;24.872;2023-01-30T04:03:33;99203.75;;;3.67;100.00
8573;BME280;4324;42.012;24.872;2023-01-30T04:06:00;99212.31;;;3.69;100.00
8573;BME280;4324;42.012;24.872;2023-01-30T04:08:27;99215.91;;;3.68;100.00
8573;BME280;4324;42.012;24.872;2023-01-30T04:10:55;99205.19;;;3.60;100.00
8573;BME280;4324;42.012;24.872;2023-01-30T04:13:22;99198.47;;;3.56;100.00
8573;BME280;4324;42.012;24.872;2023-01-30T04:15:49;99196.00;;;3.54;100.00
8573;BME280;4324;42.012;24.872;2023-01-30T04:18:16;99162.88;;;3.31;100.00
8573;BME280;4324;42.012;24.872;2023-01-30T04:20:44;99188.59;;;3.48;100.00
8573;BME280;4324;42.012;24.872;2023-01-30T04:23:11;99153.81;;;3.24;100.00
8573;BME280;4324;42.012;24.872;2023-01-30T04:25:38;99108.47;;;3.01;100.00
8573;BME280;4324;42.012;24.872;2023-01-30T04:28:06;99197.78;;;3.54;100.00
8573;BME280;4324;42.012;24.872;2023-01-30T04:30:33;99102.25;;;2.90;100.00
8573;BME280;4324;42.012;24.872;2023-01-30T04:33:00;99207.19;;;3.56;100.00
8573;BME280;4324;42.012;24.872;2023-01-30T04:35:27;99193.97;;;3.47;100.00
8573;BME280;4324;42.012;24.872;2023-01-30T04:37:54;99180.13;;;3.33;100.00
8573;BME280;4324;42.012;24.872;2023-01-30T04:40:21;99173.97;;;3.34;100.00
8573;BME280;4324;42.012;24.872;2023-01-30T04:42:48;99172.53;;;3.30;100.00
8573;BME280;4324;42.012;24.872;2023-01-30T04:45:16;99172.75;;;3.27;100.00
8573;BME280;4324;42.012;24.872;2023-01-30T04:47:43;99172.16;;;3.24;100.00
8573;BME280;4324;42.012;24.872;2023-01-30T04:50:10;99204.66;;;3.44;100.00
8573;BME280;4324;42.012;24.872;2023-01-30T04:52:37;99192.97;;;3.36;100.00
8573;BME280;4324;42.012;24.872;2023-01-30T04:55:05;99204.66;;;3.44;100.00
8573;BME280;4324;42.012;24.872;2023-01-30T04:57:32;99221.81;;;3.48;100.00
8573;BME280;4324;42.012;24.872;2023-01-30T04:59:59;99199.91;;;3.37;100.00
8573;BME280;4324;42.012;24.872;2023-01-30T05:02:27;99207.78;;;3.49;100.00
8573;BME280;4324;42.012;24.872;2023-01-30T05:04:54;99199.66;;;3.40;100.00
8573;BME280;4324;42.012;24.872;2023-01-30T05:07:21;99187.97;;;3.33;100.00
8573;BME280;4324;42.012;24.872;2023-01-30T05:09:48;99199.91;;;3.37;100.00
8573;BME280;4324;42.012;24.872;2023-01-30T05:12:15;99202.03;;;3.44;100.00
8573;BME280;4324;42.012;24.872;2023-01-30T05:14:42;99207.78;;;3.49;100.00
8573;BME280;4324;42.012;24.872;2023-01-30T05:17:10;99191.78;;;3.40;100.00
8573;BME280;4324;42.012;24.872;2023-01-30T05:19:39;99220.28;;;3.56;100.00
8573;BME280;4324;42.012;24.872;2023-01-30T05:22:06;99217.28;;;3.50;100.00
8573;BME280;4324;42.012;24.872;2023-01-30T05:24:33;99212.88;;;3.50;100.00
8573;BME280;4324;42.012;24.872;2023-01-30T05:26:59;99204.66;;;3.44;100.00
8573;BME280;4324;42.012;24.872;2023-01-30T05:29:26;99197.28;;;3.37;100.00
8573;BME280;4324;42.012;24.872;2023-01-30T05:31:53;99213.25;;;3.57;100.00
8573;BME280;4324;42.012;24.872;2023-01-30T05:34:20;99214.19;;;3.56;100.00
8573;BME280;4324;42.012;24.872;2023-01-30T05:36:49;99200.75;;;3.49;100.00
8573;BME280;4324;42.012;24.872;2023-01-30T05:39:16;99199.56;;;3.53;100.00
8573;BME280;4324;42.012;24.872;2023-01-30T05:41:43;99218.97;;;3.62;100.00
8573;BME280;4324;42.012;24.872;2023-01-30T05:44:10;99147.25;;;3.18;100.00
8573;BME280;4324;42.012;24.872;2023-01-30T05:46:37;99200.63;;;3.51;100.00
8573;BME280;4324;42.012;24.872;2023-01-30T05:49:04;99196.56;;;3.47;100.00
8573;BME280;4324;42.012;24.872;2023-01-30T05:51:32;99192.69;;;3.52;100.00
8573;BME280;4324;42.012;24.872;2023-01-30T05:54:00;99184.09;;;3.50;100.00
8573;BME280;4324;42.012;24.872;2023-01-30T05:56:27;99181.59;;;3.49;100.00
8573;BME280;4324;42.012;24.872;2023-01-30T05:58:58;99201.59;;;3.61;100.00
8573;BME280;4324;42.012;24.872;2023-01-30T06:01:26;99203.72;;;3.56;100.00
8573;BME280;4324;42.012;24.872;2023-01-30T06:03:54;99211.03;;;3.63;100.00
8573;BME280;4324;42.012;24.872;2023-01-30T06:06:21;99211.72;;;3.66;100.00
8573;BME280;4324;42.012;24.872;2023-01-30T06:08:52;99206.63;;;3.64;100.00
8573;BME280;4324;42.012;24.872;2023-01-30T06:11:21;99223.53;;;3.71;100.00
8573;BME280;4324;42.012;24.872;2023-01-30T06:13:48;99210.41;;;3.60;100.00
8573;BME280;4324;42.012;24.872;2023-01-30T06:16:16;99213.97;;;3.59;100.00
8573;BME280;4324;42.012;24.872;2023-01-30T06:18:44;99221.81;;;3.59;100.00
8573;BME280;4324;42.012;24.872;2023-01-30T06:21:11;99192.97;;;3.36;100.00
8573;BME280;4324;42.012;24.872;2023-01-30T06:23:40;99223.38;;;3.61;100.00
8573;BME280;4324;42.012;24.872;2023-01-30T06:26:07;99212.53;;;3.55;100.00
8573;BME280;4324;42.012;24.872;2023-01-30T06:28:36;99215.28;;;3.53;100.00
8573;BME280;4324;42.012;24.872;2023-01-30T06:31:05;99223.97;;;3.65;100.00
8573;BME280;4324;42.012;24.872;2023-01-30T06:33:32;99233.50;;;3.66;100.00
8573;BME280;4324;42.012;24.872;2023-01-30T06:35:59;99202.28;;;3.52;100.00
8573;BME280;4324;42.012;24.872;2023-01-30T06:38:26;99213.50;;;3.54;100.00
8573;BME280;4324;42.012;24.872;2023-01-30T06:40:53;99216.34;;;3.51;100.00
8573;BME280;4324;42.012;24.872;2023-01-30T06:43:20;99208.00;;;3.46;100.00
8573;BME280;4324;42.012;24.872;2023-01-30T06:45:48;99194.41;;;3.40;100.00
8573;BME280;4324;42.012;24.872;2023-01-30T06:48:15;99218.25;;;3.49;100.00
8573;BME280;4324;42.012;24.872;2023-01-30T06:50:45;99229.69;;;3.59;100.00
8573;BME280;4324;42.012;24.872;2023-01-30T06:53:12;99212.06;;;3.50;100.00
8573;BME280;4324;42.012;24.872;2023-01-30T06:55:39;99168.78;;;3.22;100.00
8573;BME280;4324;42.012;24.872;2023-01-30T06:58:07;99242.44;;;3.63;100.00
8573;BME280;4324;42.012;24.872;2023-01-30T07:00:35;99211.81;;;3.42;100.00
8573;BME280;4324;42.012;24.872;2023-01-30T07:03:09;99221.69;;;3.49;100.00
8573;BME280;4324;42.012;24.872;2023-01-30T07:05:37;99216.91;;;3.43;100.00
8573;BME280;4324;42.012;24.872;2023-01-30T07:08:04;99239.81;;;3.63;100.00
8573;BME280;4324;42.012;24.872;2023-01-30T07:10:31;99211.31;;;3.48;100.00
8573;BME280;4324;42.012;24.872;2023-01-30T07:13:00;99226.13;;;3.60;100.00
8573;BME280;4324;42.012;24.872;2023-01-30T07:15:27;99232.56;;;3.67;100.00
8573;BME280;4324;42.012;24.872;2023-01-30T07:17:54;99227.56;;;3.64;100.00
8573;BME280;4324;42.012;24.872;2023-01-30T07:20:22;99230.06;;;3.66;100.00
8573;BME280;4324;42.012;24.872;2023-01-30T07:22:50;99193.72;;;3.38;100.00
8573;BME280;4324;42.012;24.872;2023-01-30T07:25:17;99225.53;;;3.56;100.00
8573;BME280;4324;42.012;24.872;2023-01-30T07:27:49;99217.41;;;3.48;100.00
8573;BME280;4324;42.012;24.872;2023-01-30T07:30:16;99225.97;;;3.50;100.00
8573;BME280;4324;42.012;24.872;2023-01-30T07:32:43;99236.59;;;3.60;100.00
8573;BME280;4324;42.012;24.872;2023-01-30T07:35:11;99233.03;;;3.61;100.00
8573;BME280;4324;42.012;24.872;2023-01-30T07:37:44;99229.06;;;3.55;100.00
8573;BME280;4324;42.012;24.872;2023-01-30T07:40:12;99234.69;;;3.62;100.00
8573;BME280;4324;42.012;24.872;2023-01-30T07:42:39;99233.03;;;3.61;100.00
8573;BME280;4324;42.012;24.872;2023-01-30T07:45:07;99231.84;;;3.65;100.00
8573;BME280;4324;42.012;24.872;2023-01-30T07:47:34;99225.88;;;3.63;100.00
8573;BME280;4324;42.012;24.872;2023-01-30T07:50:02;99218.38;;;3.58;100.00
8573;BME280;4324;42.012;24.872;2023-01-30T07:52:29;99231.38;;;3.60;100.00
8573;BME280;4324;42.012;24.872;2023-01-30T07:54:57;99197.53;;;3.46;100.00
8573;BME280;4324;42.012;24.872;2023-01-30T07:57:24;99229.00;;;3.68;100.00
8573;BME280;4324;42.012;24.872;2023-01-30T07:59:51;99231.09;;;3.63;100.00
8573;BME280;4324;42.012;24.872;2023-01-30T08:02:18;99228.75;;;3.60;100.00
8573;BME280;4324;42.012;24.872;2023-01-30T08:04:45;99232.06;;;3.62;100.00
8573;BME280;4324;42.012;24.872;2023-01-30T08:07:12;99217.16;;;3.51;100.00
8573;BME280;4324;42.012;24.872;2023-01-30T08:09:39;99231.97;;;3.63;100.00
8573;BME280;4324;42.012;24.872;2023-01-30T08:12:08;99229.00;;;3.68;100.00
8573;BME280;4324;42.012;24.872;2023-01-30T08:14:35;99208.84;;;3.57;100.00
8573;BME280;4324;42.012;24.872;2023-01-30T08:17:02;99225.66;;;3.66;100.00
8573;BME280;4324;42.012;24.872;2023-01-30T08:19:29;99197.44;;;3.58;100.00
8573;BME280;4324;42.012;24.872;2023-01-30T08:21:58;99216.16;;;3.76;100.00
8573;BME280;4324;42.012;24.872;2023-01-30T08:24:25;99198.03;;;3.73;100.00
8573;BME280;4324;42.012;24.872;2023-01-30T08:26:52;99227.47;;;3.88;100.00
8573;BME280;4324;42.012;24.872;2023-01-30T08:29:20;99214.25;;;3.78;100.00
8573;BME280;4324;42.012;24.872;2023-01-30T08:31:47;99214.25;;;3.78;100.00
8573;BME280;4324;42.012;24.872;2023-01-30T08:34:14;99207.09;;;3.69;100.00
8573;BME280;4324;42.012;24.872;2023-01-30T08:36:41;99206.13;;;3.70;100.00
8573;BME280;4324;42.012;24.872;2023-01-30T08:39:11;99194.81;;;3.70;100.00
8573;BME280;4324;42.012;24.872;2023-01-30T08:41:39;99212.56;;;3.77;100.00
8573;BME280;4324;42.012;24.872;2023-01-30T08:44:07;99213.66;;;3.75;100.00
8573;BME280;4324;42.012;24.872;2023-01-30T08:46:36;99214.00;;;3.81;100.00
8573;BME280;4324;42.012;24.872;2023-01-30T08:49:04;99209.47;;;3.72;100.00
8573;BME280;4324;42.012;24.872;2023-01-30T08:51:31;99212.44;;;3.68;100.00
8573;BME280;4324;42.012;24.872;2023-01-30T08:53:58;99184.81;;;3.52;100.00
8573;BME280;4324;42.012;24.872;2023-01-30T08:56:25;99211.63;;;3.67;100.00
8573;BME280;4324;42.012;24.872;2023-01-30T08:58:52;99205.28;;;3.70;100.00
8573;BME280;4324;42.012;24.872;2023-01-30T09:01:19;99188.63;;;3.59;100.00
8573;BME280;4324;42.012;24.872;2023-01-30T09:03:48;99205.91;;;3.73;100.00
8573;BME280;4324;42.012;24.872;2023-01-30T09:06:15;99202.31;;;3.74;100.00
8573;BME280;4324;42.012;24.872;2023-01-30T09:08:42;99193.75;;;3.72;100.00
8573;BME280;4324;42.012;24.872;2023-01-30T09:11:10;99214.47;;;3.75;100.00
8573;BME280;4324;42.012;24.872;2023-01-30T09:13:37;99165.41;;;3.55;100.00
8573;BME280;4324;42.012;24.872;2023-01-30T09:16:08;99198.78;;;3.75;100.00
8573;BME280;4324;42.012;24.872;2023-01-30T09:18:37;99186.75;;;3.84;100.00
8573;BME280;4324;42.012;24.872;2023-01-30T09:21:07;99195.78;;;3.91;100.00
8573;BME280;4324;42.012;24.872;2023-01-30T09:23:34;99165.19;;;3.80;100.00
8573;BME280;4324;42.012;24.872;2023-01-30T09:26:02;99186.13;;;3.92;100.00
8573;BME280;4324;42.012;24.872;2023-01-30T09:28:30;99185.44;;;4.01;100.00
8573;BME280;4324;42.012;24.872;2023-01-30T09:30:57;99166.50;;;3.97;100.00
8573;BME280;4324;42.012;24.872;2023-01-30T09:33:24;99162.69;;;4.01;100.00
8573;BME280;4324;42.012;24.872;2023-01-30T09:35:52;99173.03;;;4.14;100.00
8573;BME280;4324;42.012;24.872;2023-01-30T09:38:20;99167.31;;;4.09;100.00
8573;BME280;4324;42.012;24.872;2023-01-30T09:41:03;99160.91;;;4.02;100.00
8573;BME280;4324;42.012;24.872;2023-01-30T09:43:42;99154.31;;;4.07;100.00
8573;BME280;4324;42.012;24.872;2023-01-30T09:46:25;99116.81;;;3.96;100.00
8573;BME280;4324;42.012;24.872;2023-01-30T09:49:00;99138.75;;;4.06;100.00
8573;BME280;4324;42.012;24.872;2023-01-30T09:51:39;99134.31;;;4.06;100.00
8573;BME280;4324;42.012;24.872;2023-01-30T09:54:21;99132.16;;;4.11;100.00
8573;BME280;4324;42.012;24.872;2023-01-30T09:56:57;99122.53;;;4.12;100.00
8573;BME280;4324;42.012;24.872;2023-01-30T09:59:30;99108.72;;;4.10;100.00
8573;BME280;4324;42.012;24.872;2023-01-30T10:02:11;99108.00;;;4.19;100.00
8573;BME280;4324;42.012;24.872;2023-01-30T10:04:43;99088.00;;;4.07;100.00
8573;BME280;4324;42.012;24.872;2023-01-30T10:07:15;99102.75;;;4.19;100.00
8573;BME280;4324;42.012;24.872;2023-01-30T10:09:54;99077.97;;;4.23;99.96
8573;BME280;4324;42.012;24.872;2023-01-30T10:12:37;99087.34;;;4.26;98.41
8573;BME280;4324;42.012;24.872;2023-01-30T10:15:21;99041.75;;;4.17;99.92
8573;BME280;4324;42.012;24.872;2023-01-30T10:18:02;99064.03;;;4.44;100.00
8573;BME280;4324;42.012;24.872;2023-01-30T10:20:39;99059.81;;;4.64;100.00
8573;BME280;4324;42.012;24.872;2023-01-30T10:23:25;99053.34;;;4.68;98.86
8573;BME280;4324;42.012;24.872;2023-01-30T10:26:01;99050.59;;;4.69;97.13
8573;BME280;4324;42.012;24.872;2023-01-30T10:28:34;99039.91;;;4.61;97.71
8573;BME280;4324;42.012;24.872;2023-01-30T10:31:06;99021.28;;;4.64;99.51
8573;BME280;4324;42.012;24.872;2023-01-30T10:33:39;99009.44;;;4.70;100.00
8573;BME280;4324;42.012;24.872;2023-01-30T10:36:10;99018.06;;;4.81;100.00
8573;BME280;4324;42.012;24.872;2023-01-30T10:38:42;99024.72;;;4.85;100.00
8573;BME280;4324;42.012;24.872;2023-01-30T10:41:17;99031.31;;;4.80;100.00
8573;BME280;4324;42.012;24.872;2023-01-30T10:43:55;99024.69;;;4.76;100.00
8573;BME280;4324;42.012;24.872;2023-01-30T10:46:34;99002.41;;;4.70;100.00
8573;BME280;4324;42.012;24.872;2023-01-30T10:49:10;99004.59;;;4.65;99.30
8573;BME280;4324;42.012;24.872;2023-01-30T10:51:47;98986.47;;;4.62;99.24
8573;BME280;4324;42.012;24.872;2023-01-30T10:54:20;98950.56;;;4.53;100.00
8573;BME280;4324;42.012;24.872;2023-01-30T10:56:56;98981.16;;;4.73;100.00
8573;BME280;4324;42.012;24.872;2023-01-30T10:59:32;99000.16;;;4.87;100.00
8573;BME280;4324;42.012;24.872;2023-01-30T11:02:18;98990.41;;;4.98;100.00
8573;BME280;4324;42.012;24.872;2023-01-30T11:04:56;98969.91;;;4.82;98.89
8573;BME280;4324;42.012;24.872;2023-01-30T11:07:24;98972.63;;;5.02;100.00
8573;BME280;4324;42.012;24.872;2023-01-30T11:09:51;98958.00;;;5.09;100.00
8573;BME280;4324;42.012;24.872;2023-01-30T11:12:19;98934.88;;;4.93;100.00
8573;BME280;4324;42.012;24.872;2023-01-30T11:14:54;98942.09;;;5.01;100.00
8573;BME280;4324;42.012;24.872;2023-01-30T11:17:33;98950.66;;;5.03;100.00
8573;BME280;4324;42.012;24.872;2023-01-30T11:20:06;98944.31;;;5.05;100.00
8573;BME280;4324;42.012;24.872;2023-01-30T11:22:35;98937.78;;;5.00;100.00
8573;BME280;4324;42.012;24.872;2023-01-30T11:25:08;98907.72;;;4.73;100.00
8573;BME280;4324;42.012;24.872;2023-01-30T11:27:40;98926.34;;;5.01;100.00
8573;BME280;4324;42.012;24.872;2023-01-30T11:30:14;98911.28;;;5.03;100.00
8573;BME280;4324;42.012;24.872;2023-01-30T11:32:42;98915.88;;;5.10;100.00
8573;BME280;4324;42.012;24.872;2023-01-30T11:35:23;98893.78;;;5.13;100.00
8573;BME280;4324;42.012;24.872;2023-01-30T11:37:51;98912.19;;;5.32;100.00
8573;BME280;4324;42.012;24.872;2023-01-30T11:40:25;98898.50;;;5.19;100.00
8573;BME280;4324;42.012;24.872;2023-01-30T11:43:00;98906.81;;;5.24;100.00
8573;BME280;4324;42.012;24.872;2023-01-30T11:45:29;98898.06;;;5.14;100.00
8573;BME280;4324;42.012;24.872;2023-01-30T11:48:01;98893.25;;;5.19;100.00
8573;BME280;4324;42.012;24.872;2023-01-30T11:50:32;98879.56;;;5.16;100.00
8573;BME280;4324;42.012;24.872;2023-01-30T11:53:03;98886.88;;;5.12;100.00
8573;BME280;4324;42.012;24.872;2023-01-30T11:55:34;98886.31;;;5.18;100.00
8573;BME280;4324;42.012;24.872;2023-01-30T11:58:06;98889.41;;;5.23;100.00
8573;BME280;4324;42.012;24.872;2023-01-30T12:00:40;98873.34;;;5.26;100.00
8573;BME280;4324;42.012;24.872;2023-01-30T12:03:10;98860.59;;;5.02;100.00
8573;BME280;4324;42.012;24.872;2023-01-30T12:05:38;98858.38;;;4.98;100.00
8573;BME280;4324;42.012;24.872;2023-01-30T12:08:19;98844.56;;;4.86;100.00
8573;BME280;4324;42.012;24.872;2023-01-30T12:10:50;98843.16;;;4.92;100.00
8573;BME280;4324;42.012;24.872;2023-01-30T12:13:25;98829.06;;;4.83;100.00
8573;BME280;4324;42.012;24.872;2023-01-30T12:16:03;98856.06;;;5.04;100.00
8573;BME280;4324;42.012;24.872;2023-01-30T12:18:36;98828.25;;;4.92;100.00
8573;BME280;4324;42.012;24.872;2023-01-30T12:21:12;98825.22;;;4.97;100.00
8573;BME280;4324;42.012;24.872;2023-01-30T12:23:46;98846.53;;;5.13;100.00
8573;BME280;4324;42.012;24.872;2023-01-30T12:26:17;98772.81;;;4.56;99.15
8573;BME280;4324;42.012;24.872;2023-01-30T12:28:52;98835.72;;;4.97;97.76
8573;BME280;4324;42.012;24.872;2023-01-30T12:31:24;98835.19;;;5.03;100.00
8573;BME280;4324;42.012;24.872;2023-01-30T12:33:52;98828.56;;;4.99;99.39
8573;BME280;4324;42.012;24.872;2023-01-30T12:36:28;98814.19;;;4.93;98.20
8573;BME280;4324;42.012;24.872;2023-01-30T12:39:05;98829.66;;;5.06;99.88
8573;BME280;4324;42.012;24.872;2023-01-30T12:41:50;98818.31;;;4.96;97.84
8573;BME280;4324;42.012;24.872;2023-01-30T12:44:35;98819.44;;;4.93;98.37
8573;BME280;4324;42.012;24.872;2023-01-30T12:47:24;98820.25;;;4.94;98.72
8573;BME280;4324;42.012;24.872;2023-01-30T12:50:18;98802.16;;;5.00;100.00
8573;BME280;4324;42.012;24.872;2023-01-30T12:53:04;98794.84;;;4.94;100.00
8573;BME280;4324;42.012;24.872;2023-01-30T12:55:41;98805.22;;;5.05;100.00
8573;BME280;4324;42.012;24.872;2023-01-30T12:58:15;98805.66;;;5.01;100.00
8573;BME280;4324;42.012;24.872;2023-01-30T13:00:58;98798.72;;;5.00;100.00
8573;BME280;4324;42.012;24.872;2023-01-30T13:03:34;98800.94;;;4.95;100.00
8573;BME280;4324;42.012;24.872;2023-01-30T13:06:14;98734.19;;;4.68;100.00
8573;BME280;4324;42.012;24.872;2023-01-30T13:09:02;98786.00;;;4.95;100.00
8573;BME280;4324;42.012;24.872;2023-01-30T13:11:40;98789.47;;;4.86;100.00
8573;BME280;4324;42.012;24.872;2023-01-30T13:14:14;98770.25;;;4.85;100.00
8573;BME280;4324;42.012;24.872;2023-01-30T13:16:54;98778.56;;;4.91;100.00
8573;BME280;4324;42.012;24.872;2023-01-30T13:19:30;98764.88;;;4.87;100.00
8573;BME280;4324;42.012;24.872;2023-01-30T13:22:06;98772.31;;;4.92;100.00
8573;BME280;4324;42.012;24.872;2023-01-30T13:24:46;98747.44;;;4.76;100.00
8573;BME280;4324;42.012;24.872;2023-01-30T13:27:18;98782.97;;;4.90;99.72
8573;BME280;4324;42.012;24.872;2023-01-30T13:29:46;98752.81;;;4.65;95.84
8573;BME280;4324;42.012;24.872;2023-01-30T13:32:23;98724.09;;;4.54;96.96
8573;BME280;4324;42.012;24.872;2023-01-30T13:34:53;98768.44;;;4.76;97.01